METAR Data
IDs: Format: Raw Decoded Include TAF

Data at: 0123 UTC 24 Sep 2018

KPBX 240115Z AUTO 00000KT 1/4SM FG OVC002 19/19 A3012 RMK AO2 T01900190
KPBX 240055Z AUTO 00000KT 2 1/2SM BR SCT002 BKN010 OVC120 19/19 A3011 RMK AO2 T01900190
KPBX 240035Z AUTO 00000KT 1/4SM FG BKN003 OVC010 19/19 A3011 RMK AO2 T01900190
KPBX 240015Z AUTO 01003KT 1/2SM RA BKN006 BKN035 BKN095 19/19 A3011 RMK AO2 T01910191
KPBX 232355Z AUTO 13003KT 10SM RA SCT120 19/19 A3010 RMK AO2 T01920192 10195 20186
KPBX 232335Z AUTO 00000KT 1SM -RA BKN013 BKN055 OVC120 19/19 A3011 RMK AO2 T01920192
KPBX 232315Z AUTO 00000KT M1/4SM -RA BKN002 OVC013 19/19 A3011 RMK AO2 T01920192
KPBX 232255Z AUTO 00000KT 5SM -RA BKN021 BKN040 OVC110 19/19 A3011 RMK AO2 T01930193
KPBX 232235Z AUTO 00000KT 10SM RA SCT065 SCT095 OVC120 19/19 A3010 RMK AO2 T01910191
KPBX 232215Z AUTO 00000KT 10SM -RA OVC110 19/19 A3010 RMK AO2 T01920192
KPBX 232155Z AUTO 00000KT 7SM -RA OVC110 19/19 A3010 RMK AO2 T01920192
KPBX 232135Z AUTO 00000KT 10SM -RA SCT060 OVC110 19/19 A3010 RMK AO2 T01920192
KPBX 232115Z AUTO 00000KT 10SM RA BKN060 BKN070 OVC100 19/19 A3010 RMK AO2 T01930193
KPBX 232055Z AUTO 00000KT 4SM RA SCT002 SCT014 OVC060 19/19 A3010 RMK AO2 T01930193
KPBX 232035Z AUTO 00000KT 1/4SM -RA OVC002 19/19 A3010 RMK AO2 T01920192
KPBX 232015Z AUTO 00000KT 1/4SM -RA OVC002 19/19 A3010 RMK AO2 VIS M1/4V5 T01910191
KPBX 231955Z AUTO 05004KT 3/4SM +RA BKN009 BKN018 OVC025 19/19 A3009 RMK AO2 T01900190
KPBX 231935Z AUTO 00000KT 1/4SM RA BKN002 OVC012 19/19 A3010 RMK AO2 T01910191
KPBX 231915Z AUTO 00000KT 1/2SM RA BKN002 OVC012 19/19 A3010 RMK AO2 T01900190
KPBX 231855Z AUTO 00000KT 2SM -RA BKN010 BKN014 OVC022 19/19 A3010 RMK AO2 T01930193
KPBX 231835Z AUTO 00000KT 1SM -RA BKN011 OVC022 19/19 A3011 RMK AO2 T01900190
KPBX 231810Z AUTO 00000KT 1/2SM -RA BKN005 BKN013 OVC024 19/19 A3012 RMK AO2 T01860186
KPBX 231755Z AUTO 00000KT 2 1/2SM RA BKN003 BKN013 OVC024 19/19 A3012 RMK AO2 T01870187 10187 20166
KPBX 231735Z AUTO 00000KT 1/2SM RA OVC003 19/19 A3012 RMK AO2 T01850185
KPBX 231715Z AUTO 01003KT 1/4SM -RA OVC003 19/19 A3012 RMK AO2 T01850185
KPBX 231655Z AUTO 00000KT 1/4SM RA OVC003 19/19 A3012 RMK AO2 T01860186
KPBX 231635Z AUTO 00000KT 1/2SM -RA OVC003 19/19 A3012 RMK AO2 VIS M1/4V5 T01850185
KPBX 231615Z AUTO 00000KT 1 1/4SM DZ OVC003 18/18 A3012 RMK AO2 T01830183
KPBX 231555Z AUTO 00000KT 2SM -RA OVC003 18/18 A3013 RMK AO2 VIS 1/4V5 T01810181
KPBX 231535Z AUTO 02003KT 1/2SM -RA OVC003 18/18 A3013 RMK AO2 VIS M1/4V5 T01820182
KPBX 231515Z AUTO 00000KT 10SM BKN001 OVC041 18/18 A3013 RMK AO2 T01820182
KPBX 231455Z AUTO 00000KT 10SM OVC001 18/18 A3012 RMK AO2 T01800180
KPBX 231435Z AUTO 07007KT 2SM -RA OVC003 18/18 A3012 RMK AO2 T01760176
KPBX 231415Z AUTO 00000KT 10SM -RA BKN003 BKN034 OVC045 17/17 A3013 RMK AO2 T01730173
KPBX 231355Z AUTO 07004KT 1/2SM RA BKN003 BKN017 OVC045 17/17 A3012 RMK AO2 VIS M1/4V5 T01730173
KPBX 231335Z AUTO 02003KT M1/4SM FG OVC003 17/17 A3012 RMK AO2 T01700170
KPBX 231315Z AUTO 05004KT 1/4SM FG OVC003 17/17 A3011 RMK AO2 T01680168
KPBX 231255Z AUTO 00000KT 1/4SM FG OVC003 17/17 A3012 RMK AO2 T01680168
KPBX 231235Z AUTO 00000KT 5SM -DZ OVC003 17/17 A3011 RMK AO2 T01700170
KPBX 231215Z AUTO 08003KT 1/4SM FG OVC003 17/17 A3011 RMK AO2 T01670167
KPBX 231155Z AUTO 07003KT 3SM -RA OVC003 17/17 A3010 RMK AO2 T01660166 10175 20163
KPBX 231135Z AUTO 00000KT 1 1/2SM RA OVC003 17/17 A3011 RMK AO2 T01660166
KPBX 231115Z AUTO 05003KT 1/2SM RA OVC003 17/17 A3010 RMK AO2 T01650165
KPBX 231055Z AUTO 01003KT 1/2SM FG OVC003 16/16 A3011 RMK AO2 T01640164
KPBX 231035Z AUTO 03004KT 1/2SM -RA OVC003 16/16 A3010 RMK AO2 T01630163
KPBX 231015Z AUTO 02003KT 1/2SM -RA OVC003 17/17 A3011 RMK AO2 T01650165
KPBX 230955Z AUTO 00000KT 1/4SM FG OVC003 17/17 A3011 RMK AO2 T01660166
KPBX 230935Z AUTO 02004KT 1/2SM FG OVC003 17/17 A3010 RMK AO2 T01660166
KPBX 230910Z AUTO 07005KT 1/4SM RA OVC003 17/17 A3010 RMK AO2 T01670167
KPBX 230850Z AUTO 04004KT 1/4SM FG OVC003 17/17 A3011 RMK AO2 T01650165
KPBX 230835Z AUTO 01007KT 1/4SM FG OVC003 17/17 A3012 RMK AO2 T01650165
KPBX 230815Z AUTO 01006KT M1/4SM FG OVC003 17/17 A3011 RMK AO2 T01680168
KPBX 230755Z AUTO 36007KT 1/4SM FG OVC003 17/17 A3011 RMK AO2 T01700170
KPBX 230735Z AUTO 34006KT 1/4SM FG OVC003 17/17 A3012 RMK AO2 T01720172
KPBX 230715Z AUTO 00000KT 10SM BKN003 BKN013 OVC060 18/18 A3012 RMK AO2 T01750175
KPBX 230655Z AUTO 00000KT 10SM -RA BKN003 BKN013 OVC120 18/18 A3011 RMK AO2 T01750175
KPBX 230635Z AUTO 05006KT 10SM SCT003 OVC110 17/17 A3011 RMK AO2 T01730173
KPBX 230615Z AUTO 06005KT 10SM BKN003 OVC095 17/17 A3011 RMK AO2 T01720172
KPBX 230555Z AUTO 05007KT 1/2SM FG OVC001 17/17 A3012 RMK AO2 VIS 1/4V5 T01710171 10180 20170
KPBX 230535Z AUTO 03004KT 7SM -DZ SCT001 OVC015 17/17 A3013 RMK AO2 T01700170
KPBX 230515Z AUTO 04004KT 7SM DZ BKN003 BKN033 OVC120 17/17 A3014 RMK AO2 T01700170
KPBX 230455Z AUTO 02003KT 3SM DZ SCT005 BKN060 OVC120 17/17 A3015 RMK AO2 T01700170 402400170
KPBX 230435Z AUTO 02004KT 10SM DZ SCT006 BKN011 OVC060 17/17 A3015 RMK AO2 T01720172
KPBX 230415Z AUTO 03003KT 10SM BKN004 OVC013 17/17 A3016 RMK AO2 T01730173
KPBX 230355Z AUTO 00000KT 10SM OVC004 17/17 A3016 RMK AO2 T01720172
KPBX 230335Z AUTO 01005KT 10SM OVC004 17/17 A3015 RMK AO2 T01720172
KPBX 230315Z AUTO 01005KT 10SM OVC006 17/17 A3016 RMK AO2 T01740174
KPBX 230255Z AUTO 01005KT 10SM BKN006 OVC015 18/18 A3016 RMK AO2 T01750175
KPBX 230235Z AUTO 36005KT 7SM BKN004 OVC015 18/18 A3016 RMK AO2 T01760176
KPBX 230215Z AUTO 02004KT 10SM SCT004 OVC013 18/18 A3016 RMK AO2 T01780178
KPBX 230155Z AUTO 02003KT 10SM BKN004 OVC011 18/18 A3016 RMK AO2 T01780178
KPBX 230135Z AUTO 01004KT 7SM OVC004 18/18 A3016 RMK AO2 T01780178
KPBX 230115Z AUTO 02003KT 10SM OVC004 18/18 A3016 RMK AO2 T01800180
KPBX 230055Z AUTO 04007KT 10SM OVC004 18/18 A3015 RMK AO2 T01800180
KPBX 230035Z AUTO 01004KT 10SM OVC004 18/18 A3014 RMK AO2 T01800180
KPBX 230015Z AUTO 03004KT 7SM OVC002 18/18 A3014 RMK AO2 T01800180
KPBX 222355Z AUTO 02003KT 7SM OVC002 18/18 A3014 RMK AO2 T01800180 10190 20180
KPBX 222335Z AUTO 02007KT 10SM OVC002 18/18 A3014 RMK AO2 T01810181
KPBX 222315Z AUTO 02007KT 7SM OVC002 18/18 A3014 RMK AO2 T01810181
KPBX 222255Z AUTO 01004KT 5SM BR OVC002 18/18 A3014 RMK AO2 T01820182
KPBX 222235Z AUTO 36004KT 7SM OVC002 18/18 A3014 RMK AO2 T01830183
KPBX 222215Z AUTO 02005KT 7SM OVC002 18/18 A3014 RMK AO2 T01830183
KPBX 222155Z AUTO 01005KT 7SM -DZ OVC002 18/18 A3014 RMK AO2 T01820182
KPBX 222135Z AUTO 02006KT 4SM +RA OVC002 18/18 A3014 RMK AO2 T01820182
KPBX 222115Z AUTO 02008KT 7SM RA OVC002 18/18 A3014 RMK AO2 T01820182
KPBX 222055Z AUTO 01009KT 10SM -DZ OVC002 18/18 A3014 RMK AO2 LTG DSNT SW T01820182
KPBX 222035Z AUTO 01009KT 3SM RA BKN002 BKN015 OVC024 18/18 A3013 RMK AO2 T01840184
KPBX 222015Z AUTO 01007KT 1SM +RA OVC004 19/19 A3014 RMK AO2 T01850185
KPBX 221955Z AUTO 28007KT 5SM -DZ OVC002 19/19 A3014 RMK AO2 T01860186
KPBX 221930Z AUTO 36005KT 4SM RA OVC002 19/19 A3014 RMK AO2 LTG DSNT SE T01880188
KPBX 221915Z AUTO 36005KT 4SM -RA OVC002 19/19 A3014 RMK AO2 T01870187
KPBX 221855Z AUTO 36007KT 330V030 2SM -RA OVC002 19/19 A3014 RMK AO2 LTG DSNT S T01900190
KPBX 221835Z AUTO 01004KT 1 1/2SM -RA OVC002 19/19 A3015 RMK AO2 T01890189
KPBX 221815Z AUTO 36007KT 1/2SM FG OVC002 19/19 A3016 RMK AO2 T01900190
KPBX 221755Z AUTO 36004KT M1/4SM FG OVC002 19/19 A3016 RMK AO2 T01900190 10202 20190
KPBX 221735Z AUTO 36006KT M1/4SM FG OVC002 19/19 A3017 RMK AO2 T01900190
KPBX 221715Z AUTO 35005KT M1/4SM FG OVC002 19/19 A3018 RMK AO2 T01910191
KPBX 221655Z AUTO 35005KT M1/4SM FG OVC002 19/19 A3018 RMK AO2 T01910191
KPBX 221635Z AUTO 35003KT M1/4SM FG OVC002 19/19 A3018 RMK AO2 T01920192
KPBX 221615Z AUTO 36005KT M1/4SM FG OVC002 19/19 A3019 RMK AO2 T01920192
KPBX 221555Z AUTO 34003KT 1/4SM FG OVC002 19/19 A3019 RMK AO2 T01940194
KPBX 221535Z AUTO 36004KT M1/4SM FG OVC002 20/20 A3019 RMK AO2 T01950195
KPBX 221515Z AUTO 35003KT M1/4SM FG OVC002 20/20 A3019 RMK AO2 T01970197
KPBX 221455Z AUTO 00000KT 1 1/2SM BR OVC002 20/20 A3019 RMK AO2 T02010201
KPBX 221435Z AUTO 00000KT 1 3/4SM BR OVC002 20/20 A3018 RMK AO2 T02000200
KPBX 221415Z AUTO 04004KT 2 1/2SM BR OVC002 20/20 A3018 RMK AO2 T02010201
KPBX 221355Z AUTO 03003KT 3SM BR OVC002 20/20 A3017 RMK AO2 T02000200
KPBX 221335Z AUTO 01003KT 2SM BR OVC002 20/20 A3016 RMK AO2 VIS 1 1/2V3 T02000200